createdAt,value
2022-07-31T00:00:15.266Z,3.47
2022-07-31T00:02:41.907Z,3.70
2022-07-31T00:05:08.982Z,3.90
2022-07-31T00:07:35.520Z,4.13
2022-07-31T00:10:02.144Z,4.13
2022-07-31T00:12:28.970Z,3.90
2022-07-31T00:14:55.518Z,3.97
2022-07-31T00:17:22.159Z,4.72
2022-07-31T00:19:49.119Z,4.20
2022-07-31T00:22:15.734Z,4.18
2022-07-31T00:24:42.259Z,4.18
2022-07-31T00:27:10.749Z,4.65
2022-07-31T00:29:38.160Z,4.00
2022-07-31T00:32:05.129Z,4.32
2022-07-31T00:34:32.162Z,4.10
2022-07-31T00:36:58.720Z,3.90
2022-07-31T00:39:25.267Z,4.72
2022-07-31T00:41:51.834Z,4.32
2022-07-31T00:44:18.418Z,4.05
2022-07-31T00:46:45.170Z,3.67
2022-07-31T00:49:11.766Z,5.00
2022-07-31T00:51:39.615Z,4.65
2022-07-31T00:54:08.477Z,3.92
2022-07-31T00:56:35.534Z,4.55
2022-07-31T00:59:03.271Z,4.15
2022-07-31T01:01:30.815Z,4.07
2022-07-31T01:03:57.943Z,4.78
2022-07-31T01:06:24.543Z,4.55
2022-07-31T01:08:51.030Z,4.60
2022-07-31T01:11:21.760Z,4.53
2022-07-31T01:13:52.369Z,4.43
2022-07-31T01:16:19.783Z,4.13
2022-07-31T01:18:47.853Z,4.50
2022-07-31T01:21:20.933Z,4.32
2022-07-31T01:23:55.349Z,4.10
2022-07-31T01:26:40.719Z,4.30
2022-07-31T01:29:16.451Z,4.28
2022-07-31T01:31:48.056Z,4.55
2022-07-31T01:34:24.438Z,4.25
2022-07-31T01:37:00.496Z,4.05
2022-07-31T01:39:33.691Z,4.18
2022-07-31T01:42:04.050Z,3.45
2022-07-31T01:44:36.446Z,3.47
2022-07-31T01:47:03.857Z,2.97
2022-07-31T01:49:32.791Z,2.90
2022-07-31T01:52:04.403Z,2.97
2022-07-31T01:54:33.970Z,2.60
2022-07-31T01:57:03.396Z,2.80
2022-07-31T01:59:34.126Z,2.90
2022-07-31T02:02:04.648Z,2.55
2022-07-31T02:04:33.812Z,2.70
2022-07-31T02:07:04.117Z,2.67
2022-07-31T02:09:33.378Z,2.22
2022-07-31T02:12:01.063Z,2.15
2022-07-31T02:14:29.007Z,2.20
2022-07-31T02:16:56.267Z,2.08
2022-07-31T02:19:24.625Z,2.38
2022-07-31T02:21:51.302Z,2.10
2022-07-31T02:24:18.174Z,2.50
2022-07-31T02:26:47.127Z,2.05
2022-07-31T02:29:20.015Z,2.30
2022-07-31T02:32:09.377Z,2.13
2022-07-31T02:34:36.324Z,2.40
2022-07-31T02:37:04.269Z,2.30
2022-07-31T02:39:33.872Z,1.90
2022-07-31T02:42:02.052Z,2.20
2022-07-31T02:44:32.241Z,1.83
2022-07-31T02:47:02.398Z,1.33
2022-07-31T02:49:30.629Z,1.70
2022-07-31T02:51:57.735Z,1.83
2022-07-31T02:54:26.043Z,1.70
2022-07-31T02:56:53.907Z,1.90
2022-07-31T02:59:22.115Z,2.40
2022-07-31T03:01:48.726Z,2.20
2022-07-31T03:04:15.474Z,2.30
2022-07-31T03:06:42.007Z,2.25
2022-07-31T03:09:08.589Z,1.92
2022-07-31T03:11:35.887Z,2.05
2022-07-31T03:14:03.911Z,2.38
2022-07-31T03:16:31.982Z,2.20
2022-07-31T03:18:58.538Z,2.28
2022-07-31T03:21:25.690Z,2.10
2022-07-31T03:23:52.802Z,1.98
2022-07-31T03:26:19.671Z,2.28
2022-07-31T03:28:46.339Z,2.85
2022-07-31T03:31:12.930Z,1.90
2022-07-31T03:33:39.447Z,2.10
2022-07-31T03:36:06.209Z,2.22
2022-07-31T03:38:39.119Z,2.20
2022-07-31T03:41:09.683Z,2.42
2022-07-31T03:43:43.732Z,2.63
2022-07-31T03:46:16.202Z,2.50
2022-07-31T03:48:42.742Z,2.00
2022-07-31T03:51:09.615Z,2.58
2022-07-31T03:53:36.516Z,2.25
2022-07-31T03:56:06.386Z,2.13
2022-07-31T03:58:33.313Z,2.75
2022-07-31T04:01:00.147Z,2.60
2022-07-31T04:03:32.782Z,2.97
2022-07-31T04:05:59.328Z,3.08
2022-07-31T04:08:26.048Z,2.50
2022-07-31T04:10:52.618Z,2.92
2022-07-31T04:13:19.139Z,2.88
2022-07-31T04:15:45.683Z,3.20
2022-07-31T04:18:12.211Z,3.15
2022-07-31T04:20:38.751Z,3.08
2022-07-31T04:23:07.177Z,2.90
2022-07-31T04:25:33.833Z,4.07
2022-07-31T04:28:01.392Z,3.33
2022-07-31T04:30:27.952Z,3.30
2022-07-31T04:32:54.577Z,3.30
2022-07-31T04:35:22.331Z,2.97
2022-07-31T04:37:48.942Z,3.00
2022-07-31T04:40:15.985Z,3.00
2022-07-31T04:42:42.554Z,3.28
2022-07-31T04:45:09.671Z,3.38
2022-07-31T04:47:37.133Z,2.45
2022-07-31T04:50:04.857Z,2.35
2022-07-31T04:52:31.356Z,1.85
2022-07-31T04:54:57.881Z,2.90
2022-07-31T04:57:24.369Z,2.40
2022-07-31T05:00:00.302Z,2.35
2022-07-31T05:02:28.347Z,2.38
2022-07-31T05:04:56.855Z,2.58
2022-07-31T05:07:25.934Z,2.33
2022-07-31T05:09:55.948Z,2.47
2022-07-31T05:12:22.471Z,2.25
2022-07-31T05:14:49.008Z,2.03
2022-07-31T05:17:15.536Z,1.92
2022-07-31T05:19:42.039Z,2.35
2022-07-31T05:22:08.959Z,2.25
2022-07-31T05:24:35.830Z,2.00
2022-07-31T05:27:02.993Z,2.70
2022-07-31T05:29:30.305Z,2.30
2022-07-31T05:32:00.204Z,3.85
2022-07-31T05:34:36.257Z,2.13
2022-07-31T05:37:03.508Z,2.35
2022-07-31T05:39:30.646Z,2.75
2022-07-31T05:41:57.328Z,2.20
2022-07-31T05:44:24.534Z,2.53
2022-07-31T05:49:17.616Z,2.53
2022-07-31T05:51:45.247Z,2.15
2022-07-31T05:54:11.804Z,2.50
2022-07-31T05:56:38.657Z,2.33
2022-07-31T05:59:05.228Z,1.90
2022-07-31T06:01:31.824Z,2.58
2022-07-31T06:03:58.476Z,2.85
2022-07-31T06:06:25.015Z,2.47
2022-07-31T06:08:51.633Z,2.22
2022-07-31T06:11:18.202Z,2.28
2022-07-31T06:13:44.901Z,1.77
2022-07-31T06:16:13.728Z,2.70
2022-07-31T06:18:40.667Z,2.30
2022-07-31T06:21:07.202Z,2.33
2022-07-31T06:23:33.873Z,2.55
2022-07-31T06:26:00.895Z,2.50
2022-07-31T06:28:35.370Z,2.90
2022-07-31T06:31:21.683Z,2.45
2022-07-31T06:36:17.378Z,2.67
2022-07-31T06:38:43.917Z,2.17
2022-07-31T06:41:10.614Z,2.42
2022-07-31T06:43:37.530Z,2.75
2022-07-31T06:46:04.133Z,2.40
2022-07-31T06:48:32.093Z,2.75
2022-07-31T06:53:45.118Z,2.65
2022-07-31T06:56:11.821Z,2.40
2022-07-31T06:58:38.344Z,2.20
2022-07-31T07:01:04.958Z,2.45
2022-07-31T07:03:31.523Z,2.60
2022-07-31T07:05:58.057Z,2.28
2022-07-31T07:08:25.165Z,2.63
2022-07-31T07:10:51.986Z,2.15
2022-07-31T07:13:18.534Z,2.20
2022-07-31T07:15:45.038Z,2.10
2022-07-31T07:18:11.839Z,2.53
2022-07-31T07:20:38.758Z,2.10
2022-07-31T07:23:05.307Z,1.80
2022-07-31T07:25:32.002Z,1.80
2022-07-31T07:27:58.988Z,2.42
2022-07-31T07:30:28.531Z,2.22
2022-07-31T07:32:55.412Z,1.95
2022-07-31T07:35:22.237Z,2.00
2022-07-31T07:37:49.030Z,2.38
2022-07-31T07:40:17.021Z,1.75
2022-07-31T07:42:44.101Z,1.60
2022-07-31T07:45:11.142Z,1.77
2022-07-31T07:47:53.630Z,2.03
2022-07-31T07:50:26.964Z,2.20
2022-07-31T07:52:55.907Z,1.80
2022-07-31T07:55:22.447Z,1.58
2022-07-31T07:57:49.051Z,1.92
2022-07-31T08:00:16.279Z,2.08
2022-07-31T08:02:44.876Z,1.77
2022-07-31T08:05:29.617Z,1.75
2022-07-31T08:07:56.163Z,1.88
2022-07-31T08:10:22.738Z,1.80
2022-07-31T08:12:50.378Z,1.83
2022-07-31T08:15:16.929Z,2.25
2022-07-31T08:17:43.465Z,1.73
2022-07-31T08:20:10.220Z,1.20
2022-07-31T08:22:36.795Z,1.30
2022-07-31T08:25:05.315Z,1.40
2022-07-31T08:27:39.475Z,1.40
2022-07-31T08:30:08.154Z,1.52
2022-07-31T08:32:35.028Z,1.00
2022-07-31T08:35:01.741Z,0.90
2022-07-31T08:37:52.206Z,1.35
2022-07-31T08:40:17.941Z,0.95
2022-07-31T08:42:46.087Z,0.90
2022-07-31T08:45:13.998Z,0.90
2022-07-31T08:47:42.239Z,0.68
2022-07-31T08:50:12.126Z,0.73
2022-07-31T08:52:42.734Z,0.63
2022-07-31T08:55:09.662Z,1.10
2022-07-31T08:57:37.072Z,1.15
2022-07-31T09:00:09.874Z,1.10
2022-07-31T09:02:39.293Z,1.48
2022-07-31T09:05:06.341Z,1.08
2022-07-31T09:07:32.928Z,1.60
2022-07-31T09:09:59.451Z,1.70
2022-07-31T09:12:34.801Z,1.65
2022-07-31T09:15:01.858Z,1.92
2022-07-31T09:17:35.760Z,1.48
2022-07-31T09:20:04.479Z,1.88
2022-07-31T09:22:31.925Z,1.90
2022-07-31T09:25:12.162Z,1.95
2022-07-31T09:27:39.139Z,1.38
2022-07-31T09:30:07.494Z,3.72
2022-07-31T09:32:34.179Z,2.67
2022-07-31T09:35:12.218Z,1.70
2022-07-31T09:37:40.183Z,1.60
2022-07-31T09:40:08.533Z,1.63
2022-07-31T09:42:45.553Z,1.30
2022-07-31T09:45:23.870Z,1.55
2022-07-31T09:48:08.551Z,1.50
2022-07-31T09:50:52.647Z,1.27
2022-07-31T09:53:19.798Z,1.48
2022-07-31T09:55:53.661Z,1.48
2022-07-31T09:58:21.330Z,2.00
2022-07-31T10:00:51.851Z,1.73
2022-07-31T10:03:19.619Z,1.77
2022-07-31T10:05:47.599Z,1.88
2022-07-31T10:08:15.050Z,2.20
2022-07-31T10:10:45.965Z,1.70
2022-07-31T10:13:18.082Z,1.98
2022-07-31T10:15:48.757Z,1.65
2022-07-31T10:18:35.676Z,2.40
2022-07-31T10:21:05.520Z,1.50
2022-07-31T10:23:39.080Z,2.50
2022-07-31T10:26:05.644Z,2.13
2022-07-31T10:28:32.654Z,2.13
2022-07-31T10:30:59.499Z,2.38
2022-07-31T10:33:43.679Z,1.90
2022-07-31T10:36:19.896Z,2.33
2022-07-31T10:39:01.631Z,2.25
2022-07-31T10:41:56.074Z,2.75
2022-07-31T10:45:02.911Z,2.38
2022-07-31T10:47:29.500Z,2.00
2022-07-31T10:49:56.019Z,2.45
2022-07-31T10:52:34.876Z,2.60
2022-07-31T10:55:02.084Z,2.60
2022-07-31T10:57:34.403Z,2.72
2022-07-31T11:00:12.074Z,2.63
2022-07-31T11:02:38.923Z,2.85
2022-07-31T11:05:21.561Z,2.53
2022-07-31T11:07:59.210Z,2.30
2022-07-31T11:10:25.792Z,1.90
2022-07-31T11:13:02.559Z,2.42
2022-07-31T11:15:29.182Z,2.28
2022-07-31T11:18:21.823Z,2.60
2022-07-31T11:20:46.854Z,3.28
2022-07-31T11:23:16.777Z,2.40
2022-07-31T11:25:46.688Z,2.85
2022-07-31T11:28:24.619Z,1.77
2022-07-31T11:31:02.203Z,2.47
2022-07-31T11:33:42.157Z,2.83
2022-07-31T11:36:21.462Z,2.92
2022-07-31T11:38:50.463Z,3.55
2022-07-31T11:41:22.003Z,3.30
2022-07-31T11:43:51.291Z,3.78
2022-07-31T11:46:29.925Z,4.05
2022-07-31T11:48:57.747Z,4.70
2022-07-31T11:51:25.528Z,4.70
2022-07-31T11:53:57.286Z,4.78
2022-07-31T11:56:25.995Z,4.60
2022-07-31T11:58:57.675Z,9.40
2022-07-31T12:01:29.363Z,5.47
2022-07-31T12:04:08.400Z,6.28
2022-07-31T12:06:36.533Z,6.00
2022-07-31T12:09:03.790Z,4.75
2022-07-31T12:11:30.510Z,5.18
2022-07-31T12:13:57.467Z,4.78
2022-07-31T12:16:25.315Z,4.72
2022-07-31T12:18:59.181Z,4.32
2022-07-31T12:21:37.090Z,4.38
2022-07-31T12:24:14.486Z,5.90
2022-07-31T12:26:48.951Z,4.28
2022-07-31T12:29:15.467Z,4.30
2022-07-31T12:31:50.156Z,4.60
2022-07-31T12:34:38.312Z,4.68
2022-07-31T12:37:12.877Z,4.50
2022-07-31T12:39:59.983Z,5.68
2022-07-31T12:42:37.573Z,4.35
2022-07-31T12:45:18.211Z,4.95
2022-07-31T12:47:52.469Z,4.90
2022-07-31T12:50:23.569Z,5.10
2022-07-31T12:52:50.519Z,5.00
2022-07-31T12:55:17.835Z,4.30
2022-07-31T12:57:51.577Z,4.32
2022-07-31T13:00:24.085Z,4.00
2022-07-31T13:02:52.012Z,4.38
2022-07-31T13:05:19.074Z,4.00
2022-07-31T13:07:45.799Z,3.78
2022-07-31T13:10:19.859Z,3.85
2022-07-31T13:12:52.167Z,3.65
2022-07-31T13:15:22.436Z,3.63
2022-07-31T13:17:50.418Z,3.55
2022-07-31T13:20:17.558Z,3.83
2022-07-31T13:22:44.121Z,3.00
2022-07-31T13:25:10.866Z,4.88
2022-07-31T13:27:37.505Z,3.95
2022-07-31T13:30:04.880Z,3.63
2022-07-31T13:32:31.861Z,3.20
2022-07-31T13:35:26.363Z,3.33
2022-07-31T13:37:46.953Z,3.03
2022-07-31T13:40:14.149Z,2.60
2022-07-31T13:42:40.673Z,2.85
2022-07-31T13:45:08.537Z,3.75
2022-07-31T13:47:51.029Z,1.90
2022-07-31T13:50:19.116Z,3.08
2022-07-31T13:52:45.712Z,2.45
2022-07-31T13:55:12.234Z,2.10
2022-07-31T13:57:38.761Z,2.53
2022-07-31T14:00:06.235Z,2.53
2022-07-31T14:02:32.927Z,2.55
2022-07-31T14:04:59.502Z,2.97
2022-07-31T14:07:45.084Z,2.83
2022-07-31T14:10:17.131Z,2.65
2022-07-31T14:12:46.556Z,3.28
2022-07-31T14:15:13.114Z,3.58
2022-07-31T14:17:40.250Z,3.55
2022-07-31T14:20:07.284Z,3.50
2022-07-31T14:22:33.801Z,3.30
2022-07-31T14:25:00.594Z,3.30
2022-07-31T14:27:27.142Z,4.05
2022-07-31T14:29:53.690Z,3.33
2022-07-31T14:32:21.987Z,3.58
2022-07-31T14:34:51.677Z,3.97
2022-07-31T14:37:18.864Z,3.97
2022-07-31T14:39:45.446Z,4.88
2022-07-31T14:42:12.458Z,4.45
2022-07-31T14:44:41.846Z,5.75
2022-07-31T14:47:09.819Z,6.57
2022-07-31T14:50:09.849Z,6.45
2022-07-31T14:52:23.910Z,5.68
2022-07-31T14:54:50.445Z,6.00
2022-07-31T14:57:20.217Z,5.68
2022-07-31T14:59:50.042Z,6.50
2022-07-31T15:02:21.821Z,4.95
2022-07-31T15:04:49.028Z,4.22
2022-07-31T15:10:05.848Z,4.18
2022-07-31T15:12:32.621Z,3.40
2022-07-31T15:14:59.343Z,3.92
2022-07-31T15:17:26.122Z,3.88
2022-07-31T15:19:52.717Z,3.85
2022-07-31T15:22:19.551Z,3.67
2022-07-31T15:24:48.773Z,3.60
2022-07-31T15:27:22.147Z,3.28
2022-07-31T15:30:00.728Z,3.65
2022-07-31T15:32:33.803Z,2.90
2022-07-31T15:35:00.337Z,3.00
2022-07-31T15:37:26.900Z,3.13
2022-07-31T15:40:02.941Z,3.35
2022-07-31T15:42:37.162Z,2.90
2022-07-31T15:45:04.309Z,3.28
2022-07-31T15:47:30.831Z,3.60
2022-07-31T15:49:57.397Z,3.20
2022-07-31T15:52:24.193Z,3.40
2022-07-31T15:54:51.665Z,4.20
2022-07-31T15:57:21.197Z,4.70
2022-07-31T15:59:48.671Z,4.60
2022-07-31T16:02:15.465Z,4.53
2022-07-31T16:04:52.793Z,5.00
2022-07-31T16:08:32.838Z,5.07
2022-07-31T16:10:16.540Z,5.10
2022-07-31T16:12:49.711Z,5.20
2022-07-31T16:15:17.066Z,5.18
2022-07-31T16:17:44.832Z,5.40
2022-07-31T16:20:25.790Z,6.28
2022-07-31T16:22:58.300Z,5.60
2022-07-31T16:25:25.893Z,5.68
2022-07-31T16:27:52.663Z,5.03
2022-07-31T16:30:19.269Z,5.43
2022-07-31T16:32:45.864Z,5.32
2022-07-31T16:35:12.824Z,4.68
2022-07-31T16:37:50.137Z,5.32
2022-07-31T16:40:28.533Z,4.68
2022-07-31T16:43:49.333Z,5.13
2022-07-31T16:45:52.402Z,5.47
2022-07-31T16:48:19.480Z,5.53
2022-07-31T16:50:53.216Z,4.70
2022-07-31T16:54:10.533Z,5.00
2022-07-31T16:56:07.331Z,5.10
2022-07-31T16:58:34.781Z,5.80
2022-07-31T17:01:03.937Z,4.80
2022-07-31T17:03:58.643Z,4.65
2022-07-31T17:06:17.537Z,5.00
2022-07-31T17:08:44.073Z,5.57
2022-07-31T17:11:10.626Z,4.80
2022-07-31T17:13:37.137Z,5.80
2022-07-31T17:16:03.950Z,4.88
2022-07-31T17:18:30.483Z,5.82
2022-07-31T17:20:57.123Z,4.88
2022-07-31T17:23:43.629Z,4.72
2022-07-31T17:26:20.833Z,5.00
2022-07-31T17:28:48.561Z,4.90
2022-07-31T17:31:15.206Z,4.75
2022-07-31T17:33:58.282Z,4.65
2022-07-31T17:36:28.970Z,4.68
2022-07-31T17:38:57.329Z,5.15
2022-07-31T17:41:25.564Z,5.20
2022-07-31T17:43:55.879Z,4.78
2022-07-31T17:46:29.913Z,5.22
2022-07-31T17:49:04.661Z,4.60
2022-07-31T17:51:31.396Z,4.88
2022-07-31T17:53:59.313Z,4.38
2022-07-31T17:56:28.650Z,4.90
2022-07-31T17:59:03.825Z,4.70
2022-07-31T18:01:30.616Z,6.38
2022-07-31T18:03:57.239Z,6.22
2022-07-31T18:06:23.791Z,6.70
2022-07-31T18:08:50.424Z,4.95
2022-07-31T18:11:17.241Z,6.15
2022-07-31T18:13:48.206Z,4.47
2022-07-31T18:16:16.459Z,5.13
2022-07-31T18:18:43.155Z,6.68
2022-07-31T18:21:09.987Z,5.38
2022-07-31T18:23:36.507Z,5.22
2022-07-31T18:26:10.480Z,4.82
2022-07-31T18:28:37.426Z,5.30
2022-07-31T18:31:04.149Z,4.40
2022-07-31T18:33:50.662Z,5.85
2022-07-31T18:36:17.719Z,5.80
2022-07-31T18:38:44.259Z,6.47
2022-07-31T18:41:10.871Z,6.45
2022-07-31T18:43:37.424Z,6.28
2022-07-31T18:46:03.948Z,5.55
2022-07-31T18:48:30.757Z,5.75
2022-07-31T18:51:04.458Z,6.05
2022-07-31T18:53:32.140Z,5.43
2022-07-31T18:55:58.680Z,5.57
2022-07-31T18:58:25.481Z,5.82
2022-07-31T19:00:55.229Z,4.63
2022-07-31T19:03:22.008Z,5.45
2022-07-31T19:05:50.109Z,5.43
2022-07-31T19:08:16.723Z,4.80
2022-07-31T19:10:43.249Z,4.43
2022-07-31T19:13:18.633Z,4.50
2022-07-31T19:15:47.481Z,4.70
2022-07-31T19:18:15.119Z,5.20
2022-07-31T19:20:56.157Z,3.67
2022-07-31T19:23:25.207Z,4.55
2022-07-31T19:26:03.052Z,3.63
2022-07-31T19:28:34.974Z,3.25
2022-07-31T19:31:01.680Z,3.78
2022-07-31T19:33:28.284Z,3.13
2022-07-31T19:36:00.899Z,3.60
2022-07-31T19:38:29.442Z,2.42
2022-07-31T19:40:56.008Z,2.53
2022-07-31T19:43:22.570Z,2.83
2022-07-31T19:46:02.697Z,2.85
2022-07-31T19:48:36.619Z,3.20
2022-07-31T19:51:03.782Z,2.80
2022-07-31T19:53:30.400Z,3.03
2022-07-31T19:55:57.420Z,2.60
2022-07-31T19:58:23.963Z,2.40
2022-07-31T20:00:50.573Z,2.20
2022-07-31T20:03:17.219Z,2.25
2022-07-31T20:05:43.946Z,2.45
2022-07-31T20:08:10.545Z,2.13
2022-07-31T20:10:37.225Z,2.13
2022-07-31T20:13:03.781Z,2.00
2022-07-31T20:15:51.047Z,2.13
2022-07-31T20:18:26.872Z,2.50
2022-07-31T20:20:57.211Z,2.83
2022-07-31T20:23:25.100Z,2.80
2022-07-31T20:25:51.871Z,2.10
2022-07-31T20:28:18.480Z,2.08
2022-07-31T20:30:45.178Z,2.58
2022-07-31T20:33:13.259Z,2.55
2022-07-31T20:35:49.102Z,2.50
2022-07-31T20:38:22.370Z,2.95
2022-07-31T20:40:53.432Z,2.47
2022-07-31T20:43:21.239Z,2.50
2022-07-31T20:45:48.251Z,2.63
2022-07-31T20:48:17.680Z,1.77
2022-07-31T20:50:44.366Z,1.70
2022-07-31T20:53:15.264Z,1.70
2022-07-31T20:55:41.846Z,1.80
2022-07-31T20:58:08.390Z,1.85
2022-07-31T21:00:38.133Z,1.88
2022-07-31T21:03:05.838Z,2.00
2022-07-31T21:05:32.668Z,1.77
2022-07-31T21:07:59.292Z,2.20
2022-07-31T21:10:29.529Z,2.28
2022-07-31T21:12:56.947Z,1.63
2022-07-31T21:15:42.394Z,1.98
2022-07-31T21:18:12.383Z,1.63
2022-07-31T21:20:51.156Z,1.70
2022-07-31T21:23:24.410Z,1.90
2022-07-31T21:25:52.780Z,2.22
2022-07-31T21:28:19.669Z,1.98
2022-07-31T21:30:46.591Z,1.50
2022-07-31T21:33:13.314Z,1.92
2022-07-31T21:35:40.637Z,1.67
2022-07-31T21:38:12.284Z,1.90
2022-07-31T21:40:39.664Z,1.85
2022-07-31T21:43:06.498Z,1.98
2022-07-31T21:45:51.035Z,1.60
2022-07-31T21:48:22.632Z,2.40
2022-07-31T21:50:49.227Z,1.83
2022-07-31T21:53:15.769Z,1.50
2022-07-31T21:55:42.386Z,1.98
2022-07-31T21:58:09.664Z,2.05
2022-07-31T22:00:37.361Z,1.38
2022-07-31T22:03:04.484Z,1.30
2022-07-31T22:05:50.261Z,1.40
2022-07-31T22:08:17.243Z,1.38
2022-07-31T22:10:43.973Z,1.83
2022-07-31T22:13:10.506Z,1.40
2022-07-31T22:15:59.053Z,1.40
2022-07-31T22:18:26.575Z,1.52
2022-07-31T22:20:53.816Z,1.45
2022-07-31T22:23:20.814Z,1.95
2022-07-31T22:25:49.104Z,1.30
2022-07-31T22:28:19.680Z,1.13
2022-07-31T22:30:46.451Z,1.50
2022-07-31T22:33:13.205Z,1.10
2022-07-31T22:35:40.878Z,1.13
2022-07-31T22:38:08.567Z,1.48
2022-07-31T22:40:35.380Z,1.65
2022-07-31T22:43:02.643Z,1.17
2022-07-31T22:45:30.172Z,1.33
2022-07-31T22:47:57.814Z,1.00
2022-07-31T22:50:25.236Z,1.35
2022-07-31T22:52:52.663Z,1.40
2022-07-31T22:55:19.199Z,1.42
2022-07-31T22:57:45.766Z,1.10
2022-07-31T23:00:14.689Z,1.15
2022-07-31T23:02:42.828Z,0.93
2022-07-31T23:05:10.225Z,1.02
2022-07-31T23:07:37.290Z,1.00
2022-07-31T23:10:06.055Z,0.90
2022-07-31T23:12:32.651Z,1.15
2022-07-31T23:14:59.235Z,1.20
2022-07-31T23:17:25.833Z,1.02
2022-07-31T23:19:54.418Z,1.20
2022-07-31T23:22:33.953Z,1.55
2022-07-31T23:25:07.498Z,1.17
2022-07-31T23:27:34.924Z,1.00
2022-07-31T23:30:01.573Z,1.50
2022-07-31T23:32:28.431Z,0.95
2022-07-31T23:34:55.240Z,1.20
2022-07-31T23:37:21.956Z,0.90
2022-07-31T23:39:48.489Z,1.10
2022-07-31T23:42:33.258Z,0.90
2022-07-31T23:44:59.806Z,1.20
2022-07-31T23:47:34.014Z,1.20
2022-07-31T23:50:15.302Z,1.23
2022-07-31T23:52:45.299Z,1.10
2022-07-31T23:55:12.268Z,1.08
2022-07-31T23:57:39.645Z,1.13
